createdAt,value
2023-03-02T00:03:48.198Z,85.00
2023-03-02T00:09:16.398Z,85.08
2023-03-02T00:14:44.786Z,84.24
2023-03-02T00:20:12.769Z,84.38
2023-03-02T00:25:40.577Z,83.60
2023-03-02T00:31:09.001Z,83.35
2023-03-02T00:36:35.932Z,83.87
2023-03-02T00:42:03.049Z,83.38
2023-03-02T00:47:30.200Z,84.54
2023-03-02T00:52:57.335Z,83.81
2023-03-02T00:58:26.798Z,85.06
2023-03-02T01:03:55.416Z,86.34
2023-03-02T01:09:23.356Z,87.45
2023-03-02T01:14:51.677Z,86.43
2023-03-02T01:20:19.448Z,84.52
2023-03-02T01:25:47.314Z,85.50
2023-03-02T01:31:15.487Z,85.70
2023-03-02T01:36:46.467Z,85.65
2023-03-02T01:42:14.543Z,86.02
2023-03-02T01:47:42.124Z,86.97
2023-03-02T01:53:16.860Z,87.61
2023-03-02T01:58:48.083Z,86.54
2023-03-02T02:04:15.494Z,86.48
2023-03-02T02:09:47.611Z,87.67
2023-03-02T02:15:15.460Z,87.26
2023-03-02T02:20:49.076Z,87.06
2023-03-02T02:26:45.628Z,86.24
2023-03-02T02:32:15.873Z,86.03
2023-03-02T02:37:47.702Z,86.19
2023-03-02T02:43:22.011Z,87.55
2023-03-02T02:48:49.009Z,86.74
2023-03-02T02:54:18.992Z,87.09
2023-03-02T02:59:52.997Z,86.91
2023-03-02T03:05:20.677Z,85.99
2023-03-02T03:10:48.609Z,86.70
2023-03-02T03:16:18.466Z,87.41
2023-03-02T03:21:49.546Z,86.11
2023-03-02T03:27:17.532Z,87.69
2023-03-02T03:32:45.576Z,88.75
2023-03-02T03:38:14.584Z,88.05
2023-03-02T03:43:43.459Z,88.45
2023-03-02T03:49:11.636Z,86.15
2023-03-02T03:54:39.589Z,86.28
2023-03-02T04:00:10.801Z,86.27
2023-03-02T04:05:52.146Z,87.38
2023-03-02T04:11:19.221Z,87.10
2023-03-02T04:16:46.896Z,88.12
2023-03-02T04:22:15.543Z,88.58
2023-03-02T04:27:42.674Z,88.36
2023-03-02T04:33:10.495Z,88.96
2023-03-02T04:38:38.518Z,89.96
2023-03-02T04:44:05.770Z,89.41
2023-03-02T04:49:32.509Z,89.02
2023-03-02T04:54:59.962Z,88.45
2023-03-02T05:00:45.830Z,88.28
2023-03-02T05:06:14.472Z,89.13
2023-03-02T05:11:41.979Z,88.07
2023-03-02T05:17:09.642Z,88.11
2023-03-02T05:22:36.572Z,88.43
2023-03-02T05:28:04.939Z,89.20
2023-03-02T05:33:33.142Z,88.94
2023-03-02T05:39:00.997Z,90.13
2023-03-02T05:44:28.728Z,88.99
2023-03-02T05:49:56.044Z,88.34
2023-03-02T05:55:24.107Z,88.46
2023-03-02T06:01:01.419Z,88.52
2023-03-02T06:06:29.186Z,88.05
2023-03-02T06:11:56.457Z,88.77
2023-03-02T06:17:23.738Z,88.31
2023-03-02T06:22:51.125Z,86.81
2023-03-02T06:28:22.403Z,84.09
2023-03-02T06:33:50.210Z,76.16
2023-03-02T06:39:17.774Z,69.88
2023-03-02T06:44:44.629Z,68.53
2023-03-02T06:50:12.383Z,59.87
2023-03-02T06:55:39.957Z,54.85
2023-03-02T07:01:08.321Z,50.10
2023-03-02T07:06:36.174Z,46.72
2023-03-02T07:12:04.411Z,43.01
2023-03-02T07:17:31.982Z,39.93
2023-03-02T07:22:59.193Z,36.86
2023-03-02T07:28:27.630Z,35.13
2023-03-02T07:33:54.961Z,32.93
2023-03-02T07:39:22.198Z,30.97
2023-03-02T07:44:49.426Z,29.43
2023-03-02T07:50:17.040Z,28.93
2023-03-02T07:55:44.334Z,27.88
2023-03-02T08:01:12.464Z,27.42
2023-03-02T08:06:42.466Z,27.97
2023-03-02T08:12:10.147Z,26.97
2023-03-02T08:17:37.015Z,26.13
2023-03-02T08:23:04.316Z,25.24
2023-03-02T08:28:31.163Z,25.12
2023-03-02T08:33:59.828Z,25.39
2023-03-02T08:39:30.495Z,26.42
2023-03-02T08:44:58.127Z,25.82
2023-03-02T08:50:25.344Z,25.00
2023-03-02T08:55:53.624Z,23.37
2023-03-02T09:01:28.919Z,24.27
2023-03-02T09:06:56.484Z,24.87
2023-03-02T09:12:24.312Z,25.15
2023-03-02T09:17:51.464Z,26.19
2023-03-02T09:23:20.827Z,25.59
2023-03-02T09:28:48.726Z,25.88
2023-03-02T09:34:16.418Z,26.47
2023-03-02T09:39:43.551Z,26.14
2023-03-02T09:45:23.788Z,27.15
2023-03-02T09:51:01.510Z,26.98
2023-03-02T09:56:28.802Z,28.48
2023-03-02T10:02:01.543Z,29.49
2023-03-02T10:07:38.405Z,30.24
2023-03-02T10:13:47.707Z,29.68
2023-03-02T10:19:18.434Z,30.67
2023-03-02T10:25:08.535Z,30.64
2023-03-02T10:30:38.209Z,32.42
2023-03-02T10:36:21.368Z,34.92
2023-03-02T10:41:56.341Z,35.52
2023-03-02T10:47:29.388Z,36.00
2023-03-02T10:53:01.570Z,37.66
2023-03-02T10:58:33.505Z,37.30
2023-03-02T11:04:02.393Z,36.74
2023-03-02T11:09:29.704Z,37.82
2023-03-02T11:15:27.234Z,39.64
2023-03-02T11:21:21.081Z,40.18
2023-03-02T11:26:59.826Z,39.81
2023-03-02T11:32:51.802Z,40.53
2023-03-02T11:38:28.798Z,40.81
2023-03-02T11:44:02.097Z,41.25
2023-03-02T11:49:57.428Z,41.71
2023-03-02T11:55:27.936Z,42.77
2023-03-02T12:00:57.205Z,43.72
2023-03-02T12:06:29.416Z,42.53
2023-03-02T12:12:26.276Z,42.40
2023-03-02T12:17:54.031Z,42.81
2023-03-02T12:23:27.174Z,42.55
2023-03-02T12:29:09.682Z,42.75
2023-03-02T12:34:42.110Z,43.48
2023-03-02T12:40:43.685Z,42.92
2023-03-02T12:46:11.149Z,43.14
2023-03-02T12:51:50.551Z,44.42
2023-03-02T12:57:20.632Z,44.24
2023-03-02T13:02:52.802Z,43.78
2023-03-02T13:08:25.803Z,44.08
2023-03-02T13:13:53.505Z,43.47
2023-03-02T13:19:20.989Z,43.51
2023-03-02T13:25:06.369Z,43.33
2023-03-02T13:30:37.730Z,44.34
2023-03-02T13:36:06.505Z,43.94
2023-03-02T13:41:36.897Z,43.56
2023-03-02T13:47:04.213Z,43.90
2023-03-02T13:52:32.647Z,43.77
2023-03-02T13:58:01.295Z,42.87
2023-03-02T14:03:31.205Z,43.17
2023-03-02T14:08:58.268Z,43.34
2023-03-02T14:14:29.514Z,44.29
2023-03-02T14:19:57.294Z,44.85
2023-03-02T14:25:25.518Z,44.83
2023-03-02T14:30:55.909Z,44.34
2023-03-02T14:36:33.613Z,43.35
2023-03-02T14:42:01.185Z,44.04
2023-03-02T14:47:28.301Z,45.18
2023-03-02T14:52:58.287Z,46.44
2023-03-02T14:58:32.905Z,46.11
2023-03-02T15:04:00.267Z,47.32
2023-03-02T15:09:28.310Z,47.96
2023-03-02T15:14:55.237Z,48.98
2023-03-02T15:20:22.788Z,49.87
2023-03-02T15:25:50.516Z,50.10
2023-03-02T15:31:19.101Z,50.04
2023-03-02T15:36:46.440Z,49.58
2023-03-02T15:42:14.392Z,49.90
2023-03-02T15:47:41.756Z,50.28
2023-03-02T15:53:09.328Z,50.39
2023-03-02T15:58:36.293Z,51.59
2023-03-02T16:04:04.337Z,52.58
2023-03-02T16:09:31.716Z,54.30
2023-03-02T16:14:59.858Z,55.15
2023-03-02T16:20:28.052Z,56.44
2023-03-02T16:25:55.442Z,57.33
2023-03-02T16:31:27.095Z,59.47
2023-03-02T16:36:55.343Z,62.07
2023-03-02T16:42:22.135Z,64.74
2023-03-02T16:47:51.667Z,67.68
2023-03-02T16:53:20.457Z,70.02
2023-03-02T16:58:47.829Z,72.07
2023-03-02T17:04:18.629Z,74.23
2023-03-02T17:09:45.955Z,75.67
2023-03-02T17:15:14.545Z,77.33
2023-03-02T17:20:41.566Z,77.71
2023-03-02T17:26:08.882Z,79.05
2023-03-02T17:31:36.866Z,79.90
2023-03-02T17:37:05.359Z,80.73
2023-03-02T17:42:33.024Z,81.85
2023-03-02T17:48:01.699Z,81.31
2023-03-02T17:53:29.040Z,82.21
2023-03-02T17:59:00.750Z,82.65
2023-03-02T18:04:28.174Z,83.48
2023-03-02T18:09:55.980Z,84.38
2023-03-02T18:15:24.788Z,85.45
2023-03-02T18:20:51.898Z,86.52
2023-03-02T18:26:19.966Z,86.58
2023-03-02T18:31:48.667Z,87.19
2023-03-02T18:37:19.082Z,88.00
2023-03-02T18:42:48.576Z,88.03
2023-03-02T18:48:18.974Z,88.26
2023-03-02T18:53:49.330Z,89.28
2023-03-02T18:59:18.155Z,89.55
2023-03-02T19:04:48.650Z,89.08
2023-03-02T19:10:16.712Z,89.73
2023-03-02T19:15:44.240Z,90.13
2023-03-02T19:21:12.672Z,91.04
2023-03-02T19:26:40.816Z,91.15
2023-03-02T19:32:08.726Z,91.15
2023-03-02T19:37:37.513Z,90.83
2023-03-02T19:43:05.511Z,90.61
2023-03-02T19:48:35.875Z,90.16
2023-03-02T19:54:04.199Z,90.34
2023-03-02T19:59:32.839Z,89.54
2023-03-02T20:05:01.967Z,89.41
2023-03-02T20:10:36.258Z,89.37
2023-03-02T20:16:04.121Z,89.58
2023-03-02T20:21:33.506Z,89.34
2023-03-02T20:27:02.532Z,89.73
2023-03-02T20:32:30.286Z,89.62
2023-03-02T20:37:59.494Z,89.70
2023-03-02T20:43:27.663Z,89.48
2023-03-02T20:48:55.849Z,88.87
2023-03-02T20:54:26.216Z,89.18
2023-03-02T20:59:54.587Z,88.46
2023-03-02T21:05:24.277Z,88.31
2023-03-02T21:10:52.439Z,87.88
2023-03-02T21:16:38.996Z,87.85
2023-03-02T21:22:09.832Z,87.65
2023-03-02T21:27:41.204Z,87.73
2023-03-02T21:33:09.910Z,87.44
2023-03-02T21:38:40.547Z,87.00
2023-03-02T21:44:10.003Z,86.95
2023-03-02T21:49:37.158Z,86.52
2023-03-02T21:55:04.646Z,87.09
2023-03-02T22:00:36.134Z,86.55
2023-03-02T22:06:03.798Z,86.23
2023-03-02T22:11:35.496Z,85.89
2023-03-02T22:17:16.583Z,85.74
2023-03-02T22:22:45.286Z,85.81
2023-03-02T22:28:18.637Z,85.85
2023-03-02T22:33:46.752Z,85.07
2023-03-02T22:39:27.832Z,84.59
2023-03-02T22:45:17.131Z,84.97
2023-03-02T22:50:48.666Z,84.23
2023-03-02T22:56:37.627Z,84.95
2023-03-02T23:02:17.875Z,84.41
2023-03-02T23:07:45.554Z,83.80
2023-03-02T23:13:14.962Z,83.87
2023-03-02T23:18:44.168Z,84.07
2023-03-02T23:24:11.714Z,83.27
2023-03-02T23:29:41.109Z,83.32
2023-03-02T23:35:08.716Z,83.82
2023-03-02T23:40:37.097Z,83.86
2023-03-02T23:46:04.854Z,83.95
2023-03-02T23:51:33.432Z,84.08
2023-03-02T23:57:00.740Z,83.86
